Aérodrome :
LOGIN :

S'inscrire | Disclaimer

   EN    FR    IT 

 










Légende :    VFR   VFR Marginal   IFR   IFR Intensif   IFR Très Intensif
Visi : 
Plafond : 
>= 8 km
>= 3000ft
5 à 8 km
1000 à 3000 ft
1500m à 5 km
500 à 1000 ft
800 à 1500m
200 à 500 ft
< 800m
< 200 ft
Symboles :   Orages  Brouillard  Fortes neiges  Fortes précipitations  Vent > 20 kt
SIGMETs :   Divers  Orages  Givrage  Turbulence  Onde Orograph.  Cendres Volcan.






- Altitude de l'aérodrome : 2077 ft
- Code IATA : FMM


EDJA - Memmingen

DERNIER METAR :
  • 060520Z 24011KT CAVOK M02/M04 Q1020

METARs EXPIRÉS :
  • 060450Z 25010KT CAVOK M03/M05 Q1020
  • 060420Z AUTO 25010KT 9999 // NCD M04/M05 Q1020
  • 060350Z AUTO 24006KT 9999 // NCD M03/M05 Q1020
  • 060320Z AUTO VRB02KT 9999 // NCD M04/M05 Q1020
  • 060250Z AUTO VRB02KT 9999 // NCD M03/M04 Q1020

TAF TAF EDJA
Valide du 06 à 06h jusqu'au 06 à 15h UTC


060500Z 0606/0615 24010KT CAVOK



MET'MAP, la Météo Aéronautique d'un coup d'oeil ! - Copyright ORBIFLY Décembre 2007 - Disclaimer

ORBIFLY MET'MAP TEAM :

Programmation & Développement : Alexandra Zaïnal
Sur une idée originale de : Baudouin d'Aumeries
Assistance à la programmation : Marc-Olivier Méhu
Soutien technique & logistique : Manuel Goepfert

Contact : metmap@orbifly.com




SOURCES & CREDITS :

   NOAA